Terminal Aerodrome Forecast
Issued by NWS

Home | Current Version | Previous Version | Text Only | Print | Product List | Glossary On
Versions: 1 2 3 4 5 6 7 8 9 10 11 12 13 14 15 16 17 18 19 20 21 22 23 24 25 26 27 28
000
FTUS43 KDVN 190206 AAA
TAFCID
TAF AMD
KCID 190206Z 1902/1924 09012KT P6SM BKN150
     FM190400 10007KT P6SM OVC025
     FM191000 02005KT 5SM BR OVC012
     FM191400 33005KT P6SM BKN035=

USA.gov is the U.S. government's official web portal to all federal, state and local government web resources and services.